createdAt,value
2023-05-21T00:01:43.063Z,2.90
2023-05-21T00:06:44.380Z,3.10
2023-05-21T00:11:45.693Z,2.80
2023-05-21T00:16:47.135Z,2.87
2023-05-21T00:21:49.017Z,3.10
2023-05-21T00:26:50.267Z,3.47
2023-05-21T00:31:51.567Z,2.90
2023-05-21T00:36:54.792Z,2.93
2023-05-21T00:41:56.304Z,2.93
2023-05-21T00:46:58.237Z,3.20
2023-05-21T00:52:01.045Z,2.97
2023-05-21T00:57:03.321Z,3.43
2023-05-21T01:02:06.111Z,3.17
2023-05-21T01:07:08.820Z,4.03
2023-05-21T01:12:10.992Z,3.23
2023-05-21T01:17:13.296Z,3.57
2023-05-21T01:22:17.601Z,3.60
2023-05-21T01:27:18.820Z,4.13
2023-05-21T01:32:30.677Z,3.80
2023-05-21T01:37:57.210Z,3.60
2023-05-21T01:42:59.055Z,3.80
2023-05-21T01:48:01.211Z,3.90
2023-05-21T01:53:05.143Z,4.00
2023-05-21T01:58:07.537Z,4.57
2023-05-21T02:03:09.191Z,4.20
2023-05-21T02:08:12.148Z,4.67
2023-05-21T02:13:13.455Z,4.20
2023-05-21T02:18:16.034Z,4.20
2023-05-21T02:23:18.159Z,4.30
2023-05-21T02:28:20.656Z,4.73
2023-05-21T02:33:22.360Z,4.60
2023-05-21T02:38:25.223Z,4.67
2023-05-21T02:43:27.061Z,4.27
2023-05-21T02:48:28.680Z,4.73
2023-05-21T02:53:30.509Z,4.30
2023-05-21T02:58:32.738Z,5.10
2023-05-21T03:03:34.289Z,5.17
2023-05-21T03:08:37.368Z,5.27
2023-05-21T03:13:39.026Z,5.80
2023-05-21T03:18:40.543Z,5.10
2023-05-21T03:23:42.245Z,5.20
2023-05-21T03:28:43.644Z,5.43
2023-05-21T03:33:45.351Z,5.50
2023-05-21T03:38:57.878Z,5.10
2023-05-21T03:43:59.508Z,5.60
2023-05-21T03:49:05.830Z,5.63
2023-05-21T03:54:09.109Z,6.00
2023-05-21T03:59:12.402Z,6.47
2023-05-21T04:04:13.816Z,6.03
2023-05-21T04:09:15.876Z,6.30
2023-05-21T04:14:17.332Z,6.00
2023-05-21T04:19:18.951Z,6.40
2023-05-21T04:24:21.818Z,6.13
2023-05-21T04:29:42.006Z,6.43
2023-05-21T04:34:44.096Z,7.27
2023-05-21T04:39:46.189Z,6.53
2023-05-21T04:44:48.076Z,6.80
2023-05-21T04:49:50.183Z,6.43
2023-05-21T04:54:53.389Z,6.23
2023-05-21T04:59:57.179Z,6.00
2023-05-21T05:04:59.252Z,6.33
2023-05-21T05:10:01.005Z,6.30
2023-05-21T05:15:03.779Z,6.40
2023-05-21T05:20:09.321Z,5.70
2023-05-21T05:25:11.028Z,6.20
2023-05-21T05:30:13.122Z,6.17
2023-05-21T05:35:14.713Z,6.10
2023-05-21T05:40:15.995Z,6.07
2023-05-21T05:45:18.377Z,6.37
2023-05-21T05:50:20.399Z,6.40
2023-05-21T05:55:22.068Z,5.90
2023-05-21T06:00:23.704Z,6.10
2023-05-21T06:05:26.578Z,6.30
2023-05-21T06:10:28.092Z,6.47
2023-05-21T06:15:29.639Z,6.60
2023-05-21T06:20:31.849Z,6.10
2023-05-21T06:25:35.015Z,5.53
2023-05-21T06:30:37.018Z,5.93
2023-05-21T06:35:39.501Z,6.27
2023-05-21T06:40:43.995Z,6.07
2023-05-21T06:45:49.243Z,5.87
2023-05-21T06:51:12.002Z,5.77
2023-05-21T06:56:13.431Z,6.40
2023-05-21T07:01:18.546Z,6.30
2023-05-21T07:06:20.280Z,6.00
2023-05-21T07:11:21.742Z,6.38
2023-05-21T07:16:23.080Z,6.60
2023-05-21T07:21:24.820Z,6.30
2023-05-21T07:26:27.479Z,5.70
2023-05-21T07:31:29.130Z,5.75
2023-05-21T07:36:32.846Z,6.35
2023-05-21T07:41:36.995Z,6.32
2023-05-21T07:46:43.372Z,5.55
2023-05-21T07:51:46.422Z,5.20
2023-05-21T07:56:49.427Z,6.53
2023-05-21T08:02:19.903Z,6.07
2023-05-21T08:07:21.943Z,6.00
2023-05-21T08:12:23.633Z,5.90
2023-05-21T08:17:25.290Z,6.30
2023-05-21T08:22:26.929Z,6.03
2023-05-21T08:27:28.174Z,6.45
2023-05-21T08:32:29.673Z,6.15
2023-05-21T08:37:31.537Z,6.68
2023-05-21T08:42:53.345Z,6.88
2023-05-21T08:48:01.996Z,6.63
2023-05-21T08:53:16.005Z,6.50
2023-05-21T08:58:31.567Z,6.43
2023-05-21T09:03:33.330Z,7.30
2023-05-21T09:08:38.150Z,6.68
2023-05-21T09:13:44.602Z,7.63
2023-05-21T09:18:53.645Z,6.35
2023-05-21T09:24:00.053Z,7.55
2023-05-21T09:29:01.311Z,7.28
2023-05-21T09:34:03.043Z,7.25
2023-05-21T09:39:07.423Z,7.30
2023-05-21T09:44:10.397Z,7.63
2023-05-21T09:49:30.726Z,8.25
2023-05-21T09:54:34.554Z,7.30
2023-05-21T09:59:40.332Z,7.90
2023-05-21T10:04:42.549Z,9.00
2023-05-21T10:09:47.729Z,8.00
2023-05-21T10:20:20.207Z,8.80
2023-05-21T10:25:22.919Z,8.35
2023-05-21T10:30:24.753Z,8.80
2023-05-21T10:35:26.841Z,10.02
2023-05-21T10:40:28.810Z,8.85
2023-05-21T10:45:47.118Z,9.35
2023-05-21T10:51:24.984Z,9.80
2023-05-21T10:56:43.528Z,9.55
2023-05-21T11:01:44.914Z,10.70
2023-05-21T11:06:50.168Z,10.10
2023-05-21T11:12:01.493Z,10.57
2023-05-21T11:17:08.864Z,10.07
2023-05-21T11:22:34.118Z,11.00
2023-05-21T11:27:42.057Z,10.90
2023-05-21T11:33:09.308Z,9.23
2023-05-21T11:38:10.857Z,10.95
2023-05-21T11:43:12.074Z,11.13
2023-05-21T11:48:13.722Z,11.38
2023-05-21T11:53:15.079Z,11.30
2023-05-21T11:58:18.574Z,11.30
2023-05-21T12:03:25.971Z,10.82
2023-05-21T12:08:27.510Z,10.23
2023-05-21T12:13:29.352Z,10.48
2023-05-21T12:18:30.763Z,11.25
2023-05-21T12:23:31.996Z,11.50
2023-05-21T12:28:33.232Z,11.10
2023-05-21T12:33:34.997Z,10.45
2023-05-21T12:38:36.791Z,10.65
2023-05-21T12:43:38.240Z,11.73
2023-05-21T12:48:41.875Z,11.10
2023-05-21T12:53:44.095Z,11.05
2023-05-21T12:58:49.520Z,11.00
2023-05-21T13:03:50.726Z,11.02
2023-05-21T13:08:52.112Z,11.02
2023-05-21T13:13:53.467Z,11.95
2023-05-21T13:18:55.112Z,10.68
2023-05-21T13:23:56.291Z,9.77
2023-05-21T13:28:57.641Z,9.05
2023-05-21T13:33:59.006Z,10.32
2023-05-21T13:39:00.446Z,10.40
2023-05-21T13:44:01.741Z,10.40
2023-05-21T13:49:02.992Z,10.23
2023-05-21T13:54:04.272Z,9.77
2023-05-21T13:59:05.532Z,10.40
2023-05-21T14:04:07.601Z,10.50
2023-05-21T14:32:33.719Z,9.48
2023-05-21T14:43:18.201Z,9.70
2023-05-21T14:48:22.461Z,10.48
2023-05-21T14:53:23.750Z,9.23
2023-05-21T14:58:25.034Z,9.18
2023-05-21T15:03:26.369Z,9.32
2023-05-21T15:08:27.705Z,10.40
2023-05-21T15:13:29.108Z,10.07
2023-05-21T15:18:30.502Z,9.90
2023-05-21T15:23:31.731Z,10.55
2023-05-21T15:28:33.022Z,9.40
2023-05-21T15:33:34.338Z,10.80
2023-05-21T15:38:35.577Z,10.25
2023-05-21T15:43:37.390Z,9.85
2023-05-21T15:48:38.866Z,10.20
2023-05-21T15:53:40.267Z,10.13
2023-05-21T15:58:41.487Z,10.10
2023-05-21T16:03:42.830Z,10.07
2023-05-21T16:08:44.144Z,9.63
2023-05-21T16:13:45.332Z,10.00
2023-05-21T16:18:47.102Z,9.10
2023-05-21T16:23:48.662Z,9.77
2023-05-21T16:28:49.948Z,9.65
2023-05-21T16:33:51.121Z,9.30
2023-05-21T16:38:52.524Z,9.57
2023-05-21T16:43:53.784Z,9.05
2023-05-21T16:48:55.002Z,8.98
2023-05-21T16:53:56.358Z,9.38
2023-05-21T16:58:58.023Z,9.27
2023-05-21T17:03:59.527Z,8.15
2023-05-21T17:09:01.822Z,8.70
2023-05-21T17:14:03.309Z,8.32
2023-05-21T17:19:04.560Z,8.80
2023-05-21T17:24:06.287Z,8.55
2023-05-21T17:29:07.687Z,9.18
2023-05-21T17:34:09.049Z,9.32
2023-05-21T17:39:10.502Z,8.40
2023-05-21T17:44:12.973Z,9.02
2023-05-21T17:49:14.523Z,8.60
2023-05-21T17:54:15.813Z,8.95
2023-05-21T17:59:17.240Z,8.60
2023-05-21T18:04:18.917Z,8.25
2023-05-21T18:20:38.724Z,7.03
2023-05-21T18:25:40.281Z,6.60
2023-05-21T18:30:41.626Z,6.60
2023-05-21T18:35:43.782Z,7.00
2023-05-21T18:40:45.531Z,6.45
2023-05-21T18:45:47.059Z,6.32
2023-05-21T18:50:48.587Z,7.00
2023-05-21T18:55:49.997Z,5.90
2023-05-21T19:00:51.450Z,6.90
2023-05-21T19:05:52.848Z,6.68
2023-05-21T19:10:54.086Z,7.18
2023-05-21T19:15:56.589Z,6.72
2023-05-21T19:20:59.752Z,7.18
2023-05-21T19:26:01.284Z,7.43
2023-05-21T19:31:02.960Z,7.10
2023-05-21T19:36:04.308Z,7.43
2023-05-21T19:41:05.560Z,7.18
2023-05-21T19:46:07.048Z,6.43
2023-05-21T19:51:08.542Z,6.78
2023-05-21T19:56:10.152Z,7.03
2023-05-21T20:01:13.597Z,7.70
2023-05-21T20:06:15.498Z,7.40
2023-05-21T20:11:17.183Z,7.93
2023-05-21T20:16:19.672Z,7.05
2023-05-21T20:21:21.165Z,7.30
2023-05-21T20:26:22.485Z,7.35
2023-05-21T20:31:24.664Z,7.28
2023-05-21T20:36:26.449Z,7.57
2023-05-21T20:41:35.041Z,6.95
2023-05-21T20:46:38.902Z,7.63
2023-05-21T20:51:43.626Z,6.82
2023-05-21T20:56:44.813Z,7.38
2023-05-21T21:01:46.488Z,6.30
2023-05-21T21:06:47.781Z,6.57
2023-05-21T21:11:49.050Z,7.30
2023-05-21T21:16:51.130Z,7.75
2023-05-21T21:21:52.712Z,6.82
2023-05-21T21:26:54.185Z,7.30
2023-05-21T21:31:56.645Z,8.40
2023-05-21T21:36:57.865Z,7.47
2023-05-21T21:41:59.161Z,7.57
2023-05-21T21:47:00.609Z,8.18
2023-05-21T21:52:02.042Z,8.30
2023-05-21T21:57:03.504Z,8.30
2023-05-21T22:02:05.296Z,8.70
2023-05-21T22:07:09.998Z,9.23
2023-05-21T22:12:12.364Z,9.20
2023-05-21T22:17:17.154Z,10.50
2023-05-21T22:22:18.556Z,10.30
2023-05-21T22:27:20.607Z,10.90
2023-05-21T22:32:21.940Z,10.77
2023-05-21T22:37:25.471Z,13.07
2023-05-21T22:42:26.821Z,11.27
2023-05-21T22:47:28.148Z,12.80
2023-05-21T22:52:29.699Z,12.30
2023-05-21T22:57:31.166Z,12.57
2023-05-21T23:02:33.077Z,12.93
2023-05-21T23:07:34.390Z,12.50
2023-05-21T23:12:36.520Z,13.50
2023-05-21T23:17:38.012Z,12.87
2023-05-21T23:22:39.607Z,13.80
2023-05-21T23:27:41.203Z,13.20
2023-05-21T23:32:42.604Z,14.10
2023-05-21T23:37:43.906Z,14.70
2023-05-21T23:42:45.112Z,13.50
2023-05-21T23:47:46.410Z,14.80
2023-05-21T23:52:47.867Z,14.73
2023-05-21T23:57:49.406Z,14.87
